createdAt,value
2019-03-28T00:00:34.398Z,1009.06
2019-03-28T00:01:34.397Z,1009.00
2019-03-28T00:02:34.387Z,1008.95
2019-03-28T00:03:34.373Z,1009.06
2019-03-28T00:04:34.381Z,1008.98
2019-03-28T00:05:34.358Z,1009.03
2019-03-28T00:06:34.354Z,1009.03
2019-03-28T00:07:34.364Z,1008.99
2019-03-28T00:08:34.353Z,1009.04
2019-03-28T00:09:34.363Z,1009.08
2019-03-28T00:10:34.869Z,1009.06
2019-03-28T00:11:34.329Z,1009.05
2019-03-28T00:12:34.321Z,1009.09
2019-03-28T00:13:34.320Z,1009.01
2019-03-28T00:14:34.323Z,1009.02
2019-03-28T00:15:34.304Z,1008.97
2019-03-28T00:16:34.299Z,1008.98
2019-03-28T00:17:34.300Z,1008.99
2019-03-28T00:18:34.282Z,1008.93
2019-03-28T00:19:34.287Z,1008.98
2019-03-28T00:20:34.265Z,1008.94
2019-03-28T00:21:34.263Z,1008.98
2019-03-28T00:22:34.251Z,1008.88
2019-03-28T00:23:34.239Z,1008.99
2019-03-28T00:24:34.244Z,1009.03
2019-03-28T00:25:34.232Z,1008.98
2019-03-28T00:26:34.223Z,1008.99
2019-03-28T00:27:34.213Z,1008.99
2019-03-28T00:28:34.207Z,1009.01
2019-03-28T00:29:34.203Z,1008.91
2019-03-28T00:30:34.193Z,1009.01
2019-03-28T00:31:34.191Z,1008.97
2019-03-28T00:32:34.179Z,1008.96
2019-03-28T00:33:34.167Z,1009.02
2019-03-28T00:34:34.190Z,1009.04
2019-03-28T00:35:34.155Z,1008.96
2019-03-28T00:36:34.159Z,1009.01
2019-03-28T00:37:34.189Z,1009.09
2019-03-28T00:38:34.135Z,1009.10
2019-03-28T00:39:34.147Z,1009.08
2019-03-28T00:40:34.127Z,1009.03
2019-03-28T00:41:34.106Z,1009.03
2019-03-28T00:42:34.101Z,1009.01
2019-03-28T00:43:35.316Z,1009.02
2019-03-28T00:44:34.086Z,1009.01
2019-03-28T00:45:34.087Z,1008.98
2019-03-28T00:46:34.070Z,1008.90
2019-03-28T00:47:34.068Z,1009.01
2019-03-28T00:48:34.062Z,1009.03
2019-03-28T00:49:34.055Z,1008.96
2019-03-28T00:50:34.488Z,1008.90
2019-03-28T00:51:34.063Z,1008.97
2019-03-28T00:52:34.057Z,1008.95
2019-03-28T00:53:34.049Z,1008.92
2019-03-28T00:54:34.054Z,1008.98
2019-03-28T00:55:34.048Z,1008.95
2019-03-28T00:56:46.405Z,1008.88
2019-03-28T00:57:36.021Z,1008.94
2019-03-28T00:58:34.260Z,1008.88
2019-03-28T00:59:34.016Z,1008.97
2019-03-28T01:00:34.009Z,1008.91
2019-03-28T01:01:33.989Z,1008.89
2019-03-28T01:02:33.982Z,1008.91
2019-03-28T01:03:33.970Z,1008.91
2019-03-28T01:04:33.994Z,1008.91
2019-03-28T01:05:33.998Z,1008.89
2019-03-28T01:06:33.981Z,1008.93
2019-03-28T01:07:33.970Z,1008.92
2019-03-28T01:08:33.962Z,1008.91
2019-03-28T01:09:33.964Z,1008.93
2019-03-28T01:10:33.958Z,1008.90
2019-03-28T01:11:33.951Z,1008.96
2019-03-28T01:12:33.937Z,1008.96
2019-03-28T01:13:33.930Z,1008.92
2019-03-28T01:14:33.921Z,1008.95
2019-03-28T01:15:33.925Z,1008.97
2019-03-28T01:16:33.913Z,1008.85
2019-03-28T01:17:33.900Z,1008.89
2019-03-28T01:18:33.891Z,1008.94
2019-03-28T01:19:33.880Z,1009.03
2019-03-28T01:20:33.891Z,1008.96
2019-03-28T01:21:33.875Z,1008.94
2019-03-28T01:22:33.861Z,1008.93
2019-03-28T01:23:33.854Z,1008.93
2019-03-28T01:24:33.846Z,1008.90
2019-03-28T01:25:33.850Z,1008.88
2019-03-28T01:26:33.834Z,1008.86
2019-03-28T01:27:33.822Z,1008.87
2019-03-28T01:28:33.816Z,1008.87
2019-03-28T01:29:33.808Z,1008.96
2019-03-28T01:30:33.808Z,1008.84
2019-03-28T01:31:33.789Z,1008.91
2019-03-28T01:32:33.786Z,1008.84
2019-03-28T01:33:33.777Z,1008.87
2019-03-28T01:34:33.768Z,1008.93
2019-03-28T01:35:33.777Z,1008.80
2019-03-28T01:36:33.754Z,1008.82
2019-03-28T01:37:33.750Z,1008.84
2019-03-28T01:38:33.740Z,1008.75
2019-03-28T01:39:33.736Z,1008.80
2019-03-28T01:40:33.742Z,1008.76
2019-03-28T01:41:33.724Z,1008.79
2019-03-28T01:42:33.715Z,1008.73
2019-03-28T01:43:33.723Z,1008.78
2019-03-28T01:44:33.711Z,1008.80
2019-03-28T01:45:33.712Z,1008.83
2019-03-28T01:46:33.684Z,1008.83
2019-03-28T01:47:33.678Z,1008.86
2019-03-28T01:48:33.670Z,1008.83
2019-03-28T01:49:33.681Z,1008.89
2019-03-28T01:50:33.688Z,1008.87
2019-03-28T01:51:33.683Z,1008.88
2019-03-28T01:52:33.666Z,1008.80
2019-03-28T01:53:33.644Z,1008.77
2019-03-28T01:54:34.651Z,1008.79
2019-03-28T01:55:33.655Z,1008.70
2019-03-28T01:56:33.641Z,1008.80
2019-03-28T01:57:33.629Z,1008.74
2019-03-28T01:58:33.621Z,1008.72
2019-03-28T01:59:33.619Z,1008.65
2019-03-28T02:00:33.630Z,1008.67
2019-03-28T02:01:33.607Z,1008.66
2019-03-28T02:02:33.589Z,1008.60
2019-03-28T02:03:33.583Z,1008.65
2019-03-28T02:04:33.579Z,1008.58
2019-03-28T02:05:33.576Z,1008.68
2019-03-28T02:06:34.225Z,1008.67
2019-03-28T02:07:33.561Z,1008.65
2019-03-28T02:08:33.545Z,1008.72
2019-03-28T02:09:33.544Z,1008.72
2019-03-28T02:10:33.540Z,1008.75
2019-03-28T02:11:33.522Z,1008.77
2019-03-28T02:12:33.609Z,1008.74
2019-03-28T02:13:33.503Z,1008.73
2019-03-28T02:14:33.506Z,1008.67
2019-03-28T02:15:33.507Z,1008.81
2019-03-28T02:16:33.480Z,1008.79
2019-03-28T02:17:33.514Z,1008.68
2019-03-28T02:18:33.500Z,1008.77
2019-03-28T02:19:33.496Z,1008.65
2019-03-28T02:20:33.492Z,1008.61
2019-03-28T02:21:33.482Z,1008.70
2019-03-28T02:22:33.470Z,1008.71
2019-03-28T02:23:33.479Z,1008.68
2019-03-28T02:24:33.469Z,1008.67
2019-03-28T02:25:33.458Z,1008.62
2019-03-28T02:26:34.211Z,1008.63
2019-03-28T02:27:33.447Z,1008.73
2019-03-28T02:28:33.436Z,1008.67
2019-03-28T02:29:33.428Z,1008.73
2019-03-28T02:30:33.439Z,1008.75
2019-03-28T02:31:33.431Z,1008.75
2019-03-28T02:32:33.991Z,1008.80
2019-03-28T02:33:34.399Z,1008.78
2019-03-28T02:34:33.400Z,1008.75
2019-03-28T02:35:33.402Z,1008.77
2019-03-28T02:36:33.386Z,1008.77
2019-03-28T02:37:33.371Z,1008.69
2019-03-28T02:38:33.364Z,1008.73
2019-03-28T02:39:33.358Z,1008.74
2019-03-28T02:40:33.472Z,1008.74
2019-03-28T02:41:34.979Z,1008.70
2019-03-28T02:42:33.345Z,1008.79
2019-03-28T02:43:33.326Z,1008.75
2019-03-28T02:44:33.326Z,1008.76
2019-03-28T02:45:33.329Z,1008.81
2019-03-28T02:46:33.312Z,1008.85
2019-03-28T02:47:33.304Z,1008.87
2019-03-28T02:48:33.299Z,1008.81
2019-03-28T02:49:33.288Z,1008.85
2019-03-28T02:50:33.288Z,1008.80
2019-03-28T02:51:33.272Z,1008.75
2019-03-28T02:52:33.268Z,1008.80
2019-03-28T02:53:33.278Z,1008.86
2019-03-28T02:54:33.275Z,1008.83
2019-03-28T02:55:33.282Z,1008.85
2019-03-28T02:56:33.259Z,1008.82
2019-03-28T02:57:40.728Z,1008.84
2019-03-28T02:58:35.245Z,1008.81
2019-03-28T02:59:33.229Z,1008.84
2019-03-28T03:00:33.229Z,1008.79
2019-03-28T03:01:33.220Z,1008.80
2019-03-28T03:02:33.229Z,1008.84
2019-03-28T03:03:33.208Z,1008.77
2019-03-28T03:04:33.199Z,1008.77
2019-03-28T03:05:33.200Z,1008.80
2019-03-28T03:06:33.216Z,1008.82
2019-03-28T03:07:33.209Z,1008.75
2019-03-28T03:08:33.683Z,1008.77
2019-03-28T03:09:33.180Z,1008.82
2019-03-28T03:10:33.181Z,1008.81
2019-03-28T03:11:33.167Z,1008.87
2019-03-28T03:12:33.160Z,1008.76
2019-03-28T03:13:33.187Z,1008.87
2019-03-28T03:14:33.143Z,1008.85
2019-03-28T03:15:33.136Z,1008.94
2019-03-28T03:16:33.136Z,1008.85
2019-03-28T03:17:33.129Z,1008.88
2019-03-28T03:18:33.844Z,1008.90
2019-03-28T03:19:33.107Z,1008.92
2019-03-28T03:20:33.098Z,1008.99
2019-03-28T03:21:33.094Z,1008.94
2019-03-28T03:22:33.085Z,1008.97
2019-03-28T03:23:33.092Z,1008.90
2019-03-28T03:24:33.070Z,1008.88
2019-03-28T03:25:33.068Z,1008.99
2019-03-28T03:26:33.042Z,1008.96
2019-03-28T03:27:34.052Z,1009.02
2019-03-28T03:28:33.067Z,1008.92
2019-03-28T03:29:33.032Z,1009.04
2019-03-28T03:30:33.028Z,1009.03
2019-03-28T03:31:33.018Z,1008.96
2019-03-28T03:32:33.011Z,1009.04
2019-03-28T03:33:33.016Z,1008.93
2019-03-28T03:34:33.642Z,1008.96
2019-03-28T03:35:33.990Z,1009.04
2019-03-28T03:36:32.986Z,1008.92
2019-03-28T03:37:32.974Z,1008.99
2019-03-28T03:38:32.990Z,1009.04
2019-03-28T03:39:32.965Z,1008.93
2019-03-28T03:40:32.978Z,1008.96
2019-03-28T03:41:32.978Z,1008.94
2019-03-28T03:42:32.983Z,1009.07
2019-03-28T03:43:32.980Z,1009.00
2019-03-28T03:44:32.950Z,1009.01
2019-03-28T03:45:32.950Z,1009.01
2019-03-28T03:46:32.932Z,1009.06
2019-03-28T03:47:32.935Z,1009.03
2019-03-28T03:48:33.190Z,1009.01
2019-03-28T03:49:32.913Z,1009.04
2019-03-28T03:50:32.906Z,1009.01
2019-03-28T03:51:32.898Z,1009.04
2019-03-28T03:52:32.890Z,1009.04
2019-03-28T03:53:32.906Z,1008.97
2019-03-28T03:54:32.903Z,1009.02
2019-03-28T03:55:32.885Z,1008.96
2019-03-28T03:56:32.876Z,1008.99
2019-03-28T03:57:32.867Z,1008.96
2019-03-28T03:58:32.852Z,1008.99
2019-03-28T03:59:32.865Z,1008.91
2019-03-28T04:00:32.918Z,1009.00
2019-03-28T04:01:32.845Z,1009.01
2019-03-28T04:02:32.836Z,1009.07
2019-03-28T04:03:32.830Z,1009.09
2019-03-28T04:04:32.836Z,1009.07
2019-03-28T04:05:32.821Z,1009.03
2019-03-28T04:06:32.809Z,1009.09
2019-03-28T04:07:32.814Z,1009.11
2019-03-28T04:08:32.796Z,1009.05
2019-03-28T04:09:32.798Z,1009.14
2019-03-28T04:10:32.781Z,1009.12
2019-03-28T04:11:32.772Z,1009.08
2019-03-28T04:12:32.776Z,1009.17
2019-03-28T04:13:32.745Z,1009.14
2019-03-28T04:14:33.770Z,1009.15
2019-03-28T04:15:32.749Z,1009.12
2019-03-28T04:16:32.736Z,1009.14
2019-03-28T04:17:32.734Z,1009.22
2019-03-28T04:18:32.735Z,1009.13
2019-03-28T04:19:32.731Z,1009.10
2019-03-28T04:20:32.709Z,1009.16
2019-03-28T04:21:32.704Z,1009.16
2019-03-28T04:22:32.703Z,1009.16
2019-03-28T04:23:32.689Z,1009.17
2019-03-28T04:24:32.697Z,1009.16
2019-03-28T04:25:32.673Z,1009.19
2019-03-28T04:26:32.670Z,1009.18
2019-03-28T04:27:32.670Z,1009.22
2019-03-28T04:28:32.837Z,1009.25
2019-03-28T04:29:33.663Z,1009.26
2019-03-28T04:30:32.639Z,1009.20
2019-03-28T04:31:32.645Z,1009.24
2019-03-28T04:32:32.642Z,1009.25
2019-03-28T04:33:32.629Z,1009.14
2019-03-28T04:34:32.652Z,1009.22
2019-03-28T04:35:32.628Z,1009.20
2019-03-28T04:36:32.619Z,1009.27
2019-03-28T04:37:32.698Z,1009.30
2019-03-28T04:38:33.605Z,1009.32
2019-03-28T04:39:32.609Z,1009.29
2019-03-28T04:40:32.609Z,1009.29
2019-03-28T04:41:39.380Z,1009.30
2019-03-28T04:42:32.614Z,1009.33
2019-03-28T04:43:32.595Z,1009.32
2019-03-28T04:44:32.589Z,1009.33
2019-03-28T04:45:32.601Z,1009.34
2019-03-28T04:46:32.576Z,1009.32
2019-03-28T04:47:32.561Z,1009.33
2019-03-28T04:48:33.569Z,1009.36
2019-03-28T04:49:32.561Z,1009.32
2019-03-28T04:50:32.556Z,1009.33
2019-03-28T04:51:32.540Z,1009.36
2019-03-28T04:52:32.539Z,1009.24
2019-03-28T04:53:32.528Z,1009.36
2019-03-28T04:54:32.528Z,1009.34
2019-03-28T04:55:32.519Z,1009.33
2019-03-28T04:56:32.504Z,1009.40
2019-03-28T04:57:32.510Z,1009.34
2019-03-28T04:58:43.882Z,1009.36
2019-03-28T04:59:34.488Z,1009.28
2019-03-28T05:00:33.320Z,1009.40
2019-03-28T05:01:32.469Z,1009.28
2019-03-28T05:02:32.465Z,1009.40
2019-03-28T05:03:32.456Z,1009.35
2019-03-28T05:04:32.447Z,1009.36
2019-03-28T05:05:32.608Z,1009.37
2019-03-28T05:06:32.436Z,1009.42
2019-03-28T05:07:32.429Z,1009.35
2019-03-28T05:08:32.421Z,1009.38
2019-03-28T05:09:32.412Z,1009.49
2019-03-28T05:10:33.203Z,1009.47
2019-03-28T05:11:33.541Z,1009.39
2019-03-28T05:12:32.387Z,1009.47
2019-03-28T05:13:32.378Z,1009.48
2019-03-28T05:14:32.370Z,1009.42
2019-03-28T05:15:32.393Z,1009.52
2019-03-28T05:16:32.385Z,1009.51
2019-03-28T05:17:32.367Z,1009.56
2019-03-28T05:18:32.416Z,1009.54
2019-03-28T05:19:32.373Z,1009.55
2019-03-28T05:20:32.381Z,1009.48
2019-03-28T05:21:32.385Z,1009.52
2019-03-28T05:22:32.383Z,1009.54
2019-03-28T05:23:32.367Z,1009.53
2019-03-28T05:24:32.506Z,1009.55
2019-03-28T05:25:32.342Z,1009.48
2019-03-28T05:26:32.345Z,1009.48
2019-03-28T05:27:32.885Z,1009.50
2019-03-28T05:28:32.326Z,1009.56
2019-03-28T05:29:32.312Z,1009.49
2019-03-28T05:30:32.309Z,1009.43
2019-03-28T05:31:32.317Z,1009.52
2019-03-28T05:32:32.289Z,1009.53
2019-03-28T05:33:32.294Z,1009.50
2019-03-28T05:34:32.276Z,1009.53
2019-03-28T05:35:32.295Z,1009.54
2019-03-28T05:36:32.298Z,1009.51
2019-03-28T05:37:32.277Z,1009.48
2019-03-28T05:38:32.274Z,1009.55
2019-03-28T05:39:32.283Z,1009.56
2019-03-28T05:40:32.279Z,1009.55
2019-03-28T05:41:32.336Z,1009.62
2019-03-28T05:42:32.267Z,1009.54
2019-03-28T05:43:32.253Z,1009.64
2019-03-28T05:44:32.254Z,1009.58
2019-03-28T05:45:32.239Z,1009.57
2019-03-28T05:46:32.242Z,1009.64
2019-03-28T05:47:32.230Z,1009.57
2019-03-28T05:48:32.228Z,1009.62
2019-03-28T05:49:32.209Z,1009.63
2019-03-28T05:50:32.208Z,1009.64
2019-03-28T05:51:32.207Z,1009.65
2019-03-28T05:52:32.192Z,1009.60
2019-03-28T05:53:32.176Z,1009.60
2019-03-28T05:54:32.174Z,1009.69
2019-03-28T05:55:32.168Z,1009.65
2019-03-28T05:56:32.165Z,1009.66
2019-03-28T05:57:32.152Z,1009.66
2019-03-28T05:58:32.143Z,1009.67
2019-03-28T05:59:32.139Z,1009.62
2019-03-28T06:00:32.126Z,1009.71
2019-03-28T06:01:32.426Z,1009.58
2019-03-28T06:02:32.108Z,1009.63
2019-03-28T06:03:32.117Z,1009.66
2019-03-28T06:04:32.099Z,1009.65
2019-03-28T06:05:32.093Z,1009.58
2019-03-28T06:06:32.096Z,1009.61
2019-03-28T06:07:32.082Z,1009.63
2019-03-28T06:08:32.069Z,1009.64
2019-03-28T06:09:32.067Z,1009.62
2019-03-28T06:10:32.050Z,1009.66
2019-03-28T06:11:32.062Z,1009.63
2019-03-28T06:12:32.044Z,1009.70
2019-03-28T06:13:32.037Z,1009.66
2019-03-28T06:14:32.031Z,1009.70
2019-03-28T06:15:32.020Z,1009.70
2019-03-28T06:16:32.032Z,1009.70
2019-03-28T06:17:32.004Z,1009.70
2019-03-28T06:18:31.998Z,1009.66
2019-03-28T06:19:31.998Z,1009.61
2019-03-28T06:20:31.986Z,1009.65
2019-03-28T06:21:31.987Z,1009.72
2019-03-28T06:22:31.972Z,1009.71
2019-03-28T06:23:31.963Z,1009.67
2019-03-28T06:24:31.950Z,1009.68
2019-03-28T06:25:31.955Z,1009.61
2019-03-28T06:26:31.969Z,1009.75
2019-03-28T06:27:31.930Z,1009.64
2019-03-28T06:28:31.925Z,1009.71
2019-03-28T06:29:31.915Z,1009.65
2019-03-28T06:30:31.914Z,1009.72
2019-03-28T06:31:32.213Z,1009.72
2019-03-28T06:32:42.361Z,1009.69
2019-03-28T06:33:34.517Z,1009.67
2019-03-28T06:34:31.882Z,1009.69
2019-03-28T06:35:31.876Z,1009.67
2019-03-28T06:36:31.868Z,1009.73
2019-03-28T06:37:32.409Z,1009.74
2019-03-28T06:38:31.880Z,1009.67
2019-03-28T06:39:31.875Z,1009.61
2019-03-28T06:40:31.866Z,1009.60
2019-03-28T06:41:31.855Z,1009.68
2019-03-28T06:42:31.882Z,1009.60
2019-03-28T06:43:31.862Z,1009.74
2019-03-28T06:44:31.855Z,1009.73
2019-03-28T06:45:31.843Z,1009.65
2019-03-28T06:46:31.863Z,1009.73
2019-03-28T06:47:31.864Z,1009.77
2019-03-28T06:48:31.844Z,1009.79
2019-03-28T06:49:31.837Z,1009.66
2019-03-28T06:50:31.837Z,1009.76
2019-03-28T06:51:31.824Z,1009.75
2019-03-28T06:52:31.826Z,1009.73
2019-03-28T06:53:31.809Z,1009.77
2019-03-28T06:54:31.803Z,1009.73
2019-03-28T06:55:31.794Z,1009.66
2019-03-28T06:56:31.794Z,1009.73
2019-03-28T06:57:31.790Z,1009.67
2019-03-28T06:58:31.837Z,1009.70
2019-03-28T06:59:37.255Z,1009.67
2019-03-28T07:00:33.758Z,1009.60
2019-03-28T07:01:31.743Z,1009.57
2019-03-28T07:02:31.749Z,1009.60
2019-03-28T07:03:31.790Z,1009.56
2019-03-28T07:04:31.726Z,1009.53
2019-03-28T07:05:31.720Z,1009.49
2019-03-28T07:06:31.714Z,1009.50
2019-03-28T07:07:32.324Z,1009.60
2019-03-28T07:08:31.704Z,1009.51
2019-03-28T07:09:31.692Z,1009.51
2019-03-28T07:10:31.683Z,1009.45
2019-03-28T07:11:31.673Z,1009.45
2019-03-28T07:12:31.723Z,1009.41
2019-03-28T07:13:31.658Z,1009.42
2019-03-28T07:14:31.653Z,1009.31
2019-03-28T07:15:31.648Z,1009.30
2019-03-28T07:16:31.638Z,1009.25
2019-03-28T07:17:31.634Z,1009.18
2019-03-28T07:18:31.639Z,1009.13
2019-03-28T07:19:31.629Z,1009.09
2019-03-28T07:20:31.624Z,1009.07
2019-03-28T07:21:31.641Z,1008.97
2019-03-28T07:22:31.607Z,1008.94
2019-03-28T07:23:31.612Z,1008.85
2019-03-28T07:24:31.612Z,1008.81
2019-03-28T07:25:31.612Z,1008.75
2019-03-28T07:26:31.612Z,1008.84
2019-03-28T07:27:31.605Z,1008.81
2019-03-28T07:28:31.617Z,1008.82
2019-03-28T07:29:31.587Z,1008.93
2019-03-28T07:30:31.611Z,1008.88
2019-03-28T07:31:31.579Z,1008.91
2019-03-28T07:32:31.584Z,1008.95
2019-03-28T07:33:31.582Z,1008.90
2019-03-28T07:34:31.571Z,1008.93
2019-03-28T07:35:31.564Z,1008.98
2019-03-28T07:36:31.548Z,1009.00
2019-03-28T07:37:31.541Z,1009.00
2019-03-28T07:38:31.550Z,1009.02
2019-03-28T07:39:31.537Z,1009.04
2019-03-28T07:40:33.479Z,1008.99
2019-03-28T07:41:32.514Z,1009.12
2019-03-28T07:42:31.513Z,1009.04
2019-03-28T07:43:31.516Z,1009.06
2019-03-28T07:44:31.493Z,1009.01
2019-03-28T07:45:34.308Z,1009.07
2019-03-28T07:46:31.479Z,1009.11
2019-03-28T07:47:31.473Z,1009.13
2019-03-28T07:48:31.482Z,1009.13
2019-03-28T07:49:31.455Z,1009.12
2019-03-28T07:50:33.452Z,1009.09
2019-03-28T07:51:32.441Z,1009.16
2019-03-28T07:52:31.460Z,1009.12
2019-03-28T07:53:31.485Z,1009.12
2019-03-28T07:54:31.458Z,1009.03
2019-03-28T07:55:31.624Z,1009.15
2019-03-28T07:56:31.435Z,1009.12
2019-03-28T07:57:31.428Z,1009.07
2019-03-28T07:58:31.422Z,1009.03
2019-03-28T07:59:31.431Z,1008.98
2019-03-28T08:00:31.417Z,1008.99
2019-03-28T08:01:31.403Z,1008.99
2019-03-28T08:02:31.392Z,1009.03
2019-03-28T08:03:31.400Z,1009.04
2019-03-28T08:04:31.401Z,1009.04
2019-03-28T08:05:31.384Z,1008.99
2019-03-28T08:06:31.387Z,1009.05
2019-03-28T08:07:43.968Z,1008.95
2019-03-28T08:08:38.634Z,1008.99
2019-03-28T08:09:36.834Z,1008.99
2019-03-28T08:10:32.353Z,1009.05
2019-03-28T08:11:31.461Z,1008.97
2019-03-28T08:12:31.343Z,1008.96
2019-03-28T08:13:31.335Z,1008.97
2019-03-28T08:14:31.339Z,1008.97
2019-03-28T08:15:31.317Z,1009.01
2019-03-28T08:16:31.313Z,1008.90
2019-03-28T08:17:31.303Z,1008.95
2019-03-28T08:18:31.300Z,1008.86
2019-03-28T08:19:31.304Z,1008.88
2019-03-28T08:20:31.282Z,1008.93
2019-03-28T08:21:31.289Z,1008.91
2019-03-28T08:22:31.277Z,1008.93
2019-03-28T08:23:31.273Z,1008.93
2019-03-28T08:24:31.358Z,1009.06
2019-03-28T08:25:31.257Z,1008.98
2019-03-28T08:26:31.254Z,1008.99
2019-03-28T08:27:31.249Z,1009.00
2019-03-28T08:28:31.239Z,1009.01
2019-03-28T08:29:31.237Z,1009.05
2019-03-28T08:30:31.229Z,1009.04
2019-03-28T08:31:31.207Z,1009.01
2019-03-28T08:32:31.216Z,1009.06
2019-03-28T08:33:31.204Z,1009.13
2019-03-28T08:34:31.497Z,1009.12
2019-03-28T08:35:32.194Z,1009.08
2019-03-28T08:36:31.184Z,1009.08
2019-03-28T08:37:31.184Z,1009.13
2019-03-28T08:38:31.174Z,1009.12
2019-03-28T08:39:31.157Z,1009.06
2019-03-28T08:40:31.148Z,1009.07
2019-03-28T08:41:32.157Z,1009.10
2019-03-28T08:42:31.145Z,1009.09
2019-03-28T08:43:31.126Z,1009.13
2019-03-28T08:44:31.120Z,1009.12
2019-03-28T08:45:31.122Z,1009.09
2019-03-28T08:46:31.103Z,1009.08
2019-03-28T08:47:31.099Z,1009.05
2019-03-28T08:48:31.094Z,1009.05
2019-03-28T08:49:31.116Z,1009.01
2019-03-28T08:50:31.109Z,1008.97
2019-03-28T08:51:31.091Z,1008.89
2019-03-28T08:52:31.084Z,1008.87
2019-03-28T08:53:31.074Z,1008.90
2019-03-28T08:54:31.066Z,1008.91
2019-03-28T08:55:31.093Z,1008.84
2019-03-28T08:56:31.059Z,1008.86
2019-03-28T08:57:31.052Z,1008.80
2019-03-28T08:58:31.038Z,1008.82
2019-03-28T08:59:31.046Z,1008.84
2019-03-28T09:00:35.152Z,1008.82
2019-03-28T09:01:33.009Z,1008.78
2019-03-28T09:02:32.040Z,1008.80
2019-03-28T09:03:31.025Z,1008.79
2019-03-28T09:04:31.012Z,1008.71
2019-03-28T09:05:31.024Z,1008.70
2019-03-28T09:06:31.003Z,1008.67
2019-03-28T09:07:31.057Z,1008.58
2019-03-28T09:08:30.987Z,1008.64
2019-03-28T09:09:30.993Z,1008.52
2019-03-28T09:10:30.994Z,1008.50
2019-03-28T09:11:30.978Z,1008.54
2019-03-28T09:12:31.017Z,1008.55
2019-03-28T09:13:31.971Z,1008.51
2019-03-28T09:14:32.113Z,1008.55
2019-03-28T09:15:43.030Z,1008.58
2019-03-28T09:16:33.131Z,1008.55
2019-03-28T09:17:30.927Z,1008.53
2019-03-28T09:18:30.928Z,1008.54
2019-03-28T09:19:30.917Z,1008.62
2019-03-28T09:20:30.921Z,1008.64
2019-03-28T09:21:30.907Z,1008.59
2019-03-28T09:22:30.896Z,1008.66
2019-03-28T09:23:30.884Z,1008.61
2019-03-28T09:24:30.884Z,1008.63
2019-03-28T09:25:30.884Z,1008.65
2019-03-28T09:26:30.877Z,1008.69
2019-03-28T09:27:30.854Z,1008.65
2019-03-28T09:29:02.823Z,1008.65
2019-03-28T09:29:30.848Z,1008.63
2019-03-28T09:30:30.844Z,1008.59
2019-03-28T09:31:30.831Z,1008.56
2019-03-28T09:32:30.825Z,1008.57
2019-03-28T09:33:30.812Z,1008.46
2019-03-28T09:34:30.810Z,1008.42
2019-03-28T09:35:30.851Z,1008.50
2019-03-28T09:36:30.788Z,1008.49
2019-03-28T09:37:30.947Z,1008.43
2019-03-28T09:38:30.803Z,1008.46
2019-03-28T09:39:30.808Z,1008.42
2019-03-28T09:40:30.798Z,1008.36
2019-03-28T09:41:30.772Z,1008.36
2019-03-28T09:42:30.765Z,1008.39
2019-03-28T09:43:30.773Z,1008.34
2019-03-28T09:44:30.932Z,1008.35
2019-03-28T09:45:30.753Z,1008.30
2019-03-28T09:46:30.736Z,1008.36
2019-03-28T09:47:30.731Z,1008.30
2019-03-28T09:48:30.746Z,1008.30
2019-03-28T09:49:30.734Z,1008.32
2019-03-28T09:50:30.744Z,1008.29
2019-03-28T09:51:30.719Z,1008.30
2019-03-28T09:52:30.719Z,1008.29
2019-03-28T09:53:30.703Z,1008.28
2019-03-28T09:54:30.699Z,1008.27
2019-03-28T09:55:30.721Z,1008.22
2019-03-28T09:56:30.700Z,1008.22
2019-03-28T09:57:30.688Z,1008.23
2019-03-28T09:58:30.687Z,1008.20
2019-03-28T09:59:30.678Z,1008.25
2019-03-28T10:00:32.765Z,1008.26
2019-03-28T10:01:31.657Z,1008.24
2019-03-28T10:02:30.653Z,1008.22
2019-03-28T10:03:30.654Z,1008.26
2019-03-28T10:04:30.632Z,1008.21
2019-03-28T10:05:30.646Z,1008.18
2019-03-28T10:06:30.618Z,1008.18
2019-03-28T10:07:30.613Z,1008.23
2019-03-28T10:08:30.605Z,1008.20
2019-03-28T10:09:30.595Z,1008.13
2019-03-28T10:10:30.598Z,1008.11
2019-03-28T10:11:30.586Z,1008.17
2019-03-28T10:12:30.573Z,1008.14
2019-03-28T10:13:30.564Z,1008.09
2019-03-28T10:14:30.561Z,1008.08
2019-03-28T10:15:30.566Z,1008.18
2019-03-28T10:16:30.547Z,1008.19
2019-03-28T10:17:30.537Z,1008.21
2019-03-28T10:18:30.527Z,1008.22
2019-03-28T10:19:30.542Z,1008.18
2019-03-28T10:20:30.527Z,1008.20
2019-03-28T10:21:30.509Z,1008.20
2019-03-28T10:22:30.496Z,1008.15
2019-03-28T10:23:30.496Z,1008.15
2019-03-28T10:24:30.476Z,1008.14
2019-03-28T10:25:30.488Z,1008.14
2019-03-28T10:26:30.470Z,1008.17
2019-03-28T10:27:30.458Z,1008.16
2019-03-28T10:28:30.452Z,1008.10
2019-03-28T10:29:30.449Z,1008.14
2019-03-28T10:30:30.466Z,1008.14
2019-03-28T10:31:30.428Z,1008.16
2019-03-28T10:32:30.422Z,1008.15
2019-03-28T10:33:30.412Z,1008.12
2019-03-28T10:34:30.403Z,1008.18
2019-03-28T10:35:30.407Z,1008.13
2019-03-28T10:36:30.392Z,1008.16
2019-03-28T10:37:30.409Z,1008.11
2019-03-28T10:38:30.414Z,1008.13
2019-03-28T10:39:30.410Z,1008.13
2019-03-28T10:40:30.443Z,1008.19
2019-03-28T10:41:30.424Z,1008.17
2019-03-28T10:42:30.409Z,1008.19
2019-03-28T10:43:30.399Z,1008.19
2019-03-28T10:44:30.396Z,1008.19
2019-03-28T10:45:33.434Z,1008.17
2019-03-28T10:46:30.390Z,1008.18
2019-03-28T10:47:30.372Z,1008.22
2019-03-28T10:48:30.369Z,1008.21
2019-03-28T10:49:30.356Z,1008.18
2019-03-28T10:50:40.716Z,1008.24
2019-03-28T10:51:32.368Z,1008.27
2019-03-28T10:52:30.353Z,1008.30
2019-03-28T10:53:30.400Z,1008.35
2019-03-28T10:54:30.336Z,1008.34
2019-03-28T10:55:30.328Z,1008.29
2019-03-28T10:56:30.331Z,1008.28
2019-03-28T10:57:32.014Z,1008.33
2019-03-28T10:58:30.311Z,1008.28
2019-03-28T10:59:30.309Z,1008.33
2019-03-28T11:00:30.305Z,1008.45
2019-03-28T11:01:47.580Z,1008.38
2019-03-28T11:02:32.294Z,1008.38
2019-03-28T11:03:30.404Z,1008.45
2019-03-28T11:04:30.283Z,1008.48
2019-03-28T11:05:31.280Z,1008.51
2019-03-28T11:06:30.269Z,1008.44
2019-03-28T11:07:30.259Z,1008.53
2019-03-28T11:08:30.264Z,1008.49
2019-03-28T11:09:30.245Z,1008.51
2019-03-28T11:10:30.646Z,1008.51
2019-03-28T11:11:31.233Z,1008.52
2019-03-28T11:12:30.227Z,1008.49
2019-03-28T11:13:30.229Z,1008.51
2019-03-28T11:14:30.220Z,1008.53
2019-03-28T11:15:30.199Z,1008.57
2019-03-28T11:16:30.192Z,1008.55
2019-03-28T11:17:30.191Z,1008.48
2019-03-28T11:18:30.193Z,1008.53
2019-03-28T11:19:30.169Z,1008.52
2019-03-28T11:20:30.170Z,1008.53
2019-03-28T11:21:30.155Z,1008.56
2019-03-28T11:22:30.148Z,1008.47
2019-03-28T11:23:30.152Z,1008.52
2019-03-28T11:24:30.133Z,1008.47
2019-03-28T11:25:30.119Z,1008.39
2019-03-28T11:26:30.240Z,1008.44
2019-03-28T11:27:30.122Z,1008.41
2019-03-28T11:28:30.162Z,1008.37
2019-03-28T11:29:30.110Z,1008.32
2019-03-28T11:30:30.106Z,1008.34
2019-03-28T11:31:30.095Z,1008.34
2019-03-28T11:32:30.100Z,1008.36
2019-03-28T11:33:30.083Z,1008.41
2019-03-28T11:34:30.076Z,1008.28
2019-03-28T11:35:30.065Z,1008.27
2019-03-28T11:36:30.058Z,1008.22
2019-03-28T11:37:30.066Z,1008.22
2019-03-28T11:38:30.055Z,1008.23
2019-03-28T11:39:30.037Z,1008.25
2019-03-28T11:40:30.021Z,1008.18
2019-03-28T11:41:30.022Z,1008.20
2019-03-28T11:42:30.003Z,1008.17
2019-03-28T11:43:30.000Z,1008.18
2019-03-28T11:44:29.997Z,1008.07
2019-03-28T11:45:30.009Z,1008.14
2019-03-28T11:46:30.016Z,1008.11
2019-03-28T11:47:29.980Z,1008.11
2019-03-28T11:48:29.977Z,1008.14
2019-03-28T11:49:29.978Z,1008.07
2019-03-28T11:50:29.953Z,1008.10
2019-03-28T11:51:30.566Z,1008.11
2019-03-28T11:52:29.966Z,1008.06
2019-03-28T11:53:29.958Z,1008.05
2019-03-28T11:54:29.962Z,1008.00
2019-03-28T11:55:29.968Z,1008.01
2019-03-28T11:56:29.952Z,1008.05
2019-03-28T11:57:29.956Z,1008.04
2019-03-28T11:58:29.940Z,1008.11
2019-03-28T11:59:30.008Z,1008.09
2019-03-28T12:00:29.929Z,1008.07
2019-03-28T12:01:29.922Z,1008.05
2019-03-28T12:02:29.916Z,1008.07
2019-03-28T12:03:29.902Z,1008.00
2019-03-28T12:04:29.902Z,1008.05
2019-03-28T12:05:29.919Z,1008.02